sensor_id;sensor_type;location;lat;lon;timestamp;temperature;humidity
1379;DHT22;683;48.738;9.226;2022-11-15T00:01:56;8.40;99.90
1379;DHT22;683;48.738;9.226;2022-11-15T00:04:43;8.40;99.90
1379;DHT22;683;48.738;9.226;2022-11-15T00:07:29;8.40;99.90
1379;DHT22;683;48.738;9.226;2022-11-15T00:10:17;8.40;99.90
1379;DHT22;683;48.738;9.226;2022-11-15T00:13:07;8.40;99.90
1379;DHT22;683;48.738;9.226;2022-11-15T00:15:57;8.40;99.90
1379;DHT22;683;48.738;9.226;2022-11-15T00:18:43;8.40;99.90
1379;DHT22;683;48.738;9.226;2022-11-15T00:21:30;8.40;99.90
1379;DHT22;683;48.738;9.226;2022-11-15T00:24:16;8.40;99.90
1379;DHT22;683;48.738;9.226;2022-11-15T00:27:04;8.40;99.90
1379;DHT22;683;48.738;9.226;2022-11-15T00:29:51;8.30;99.90
1379;DHT22;683;48.738;9.226;2022-11-15T00:32:37;8.40;99.90
1379;DHT22;683;48.738;9.226;2022-11-15T00:35:24;8.40;99.90
1379;DHT22;683;48.738;9.226;2022-11-15T00:38:10;8.40;99.90
1379;DHT22;683;48.738;9.226;2022-11-15T00:40:57;8.40;99.90
1379;DHT22;683;48.738;9.226;2022-11-15T00:43:44;8.50;99.90
1379;DHT22;683;48.738;9.226;2022-11-15T00:46:30;8.40;99.90
1379;DHT22;683;48.738;9.226;2022-11-15T00:49:17;8.50;99.90
1379;DHT22;683;48.738;9.226;2022-11-15T00:52:03;8.50;99.90
1379;DHT22;683;48.738;9.226;2022-11-15T00:54:50;8.50;99.90
1379;DHT22;683;48.738;9.226;2022-11-15T00:57:36;8.40;99.90
1379;DHT22;683;48.738;9.226;2022-11-15T01:00:24;8.40;99.90
1379;DHT22;683;48.738;9.226;2022-11-15T01:03:11;8.30;99.90
1379;DHT22;683;48.738;9.226;2022-11-15T01:05:59;8.30;99.90
1379;DHT22;683;48.738;9.226;2022-11-15T01:08:45;8.30;99.90
1379;DHT22;683;48.738;9.226;2022-11-15T01:11:32;8.30;99.90
1379;DHT22;683;48.738;9.226;2022-11-15T01:14:18;8.30;99.90
1379;DHT22;683;48.738;9.226;2022-11-15T01:17:06;8.30;99.90
1379;DHT22;683;48.738;9.226;2022-11-15T01:19:52;8.20;99.90
1379;DHT22;683;48.738;9.226;2022-11-15T01:22:39;8.20;99.90
1379;DHT22;683;48.738;9.226;2022-11-15T01:25:25;8.10;99.90
1379;DHT22;683;48.738;9.226;2022-11-15T01:28:12;8.00;99.90
1379;DHT22;683;48.738;9.226;2022-11-15T01:30:58;8.00;99.90
1379;DHT22;683;48.738;9.226;2022-11-15T01:33:47;7.90;99.90
1379;DHT22;683;48.738;9.226;2022-11-15T01:36:34;7.90;99.90
1379;DHT22;683;48.738;9.226;2022-11-15T01:39:20;7.80;99.90
1379;DHT22;683;48.738;9.226;2022-11-15T01:42:11;7.70;99.90
1379;DHT22;683;48.738;9.226;2022-11-15T01:44:57;7.60;99.90
1379;DHT22;683;48.738;9.226;2022-11-15T01:47:48;7.60;99.90
1379;DHT22;683;48.738;9.226;2022-11-15T01:50:38;7.50;99.90
1379;DHT22;683;48.738;9.226;2022-11-15T01:53:26;7.40;99.90
1379;DHT22;683;48.738;9.226;2022-11-15T01:56:15;7.40;99.90
1379;DHT22;683;48.738;9.226;2022-11-15T01:59:04;7.30;99.90
1379;DHT22;683;48.738;9.226;2022-11-15T02:01:53;7.20;99.90
1379;DHT22;683;48.738;9.226;2022-11-15T02:04:41;7.20;99.90
1379;DHT22;683;48.738;9.226;2022-11-15T02:07:31;7.10;99.90
1379;DHT22;683;48.738;9.226;2022-11-15T02:10:19;7.20;99.90
1379;DHT22;683;48.738;9.226;2022-11-15T02:13:06;7.20;99.90
1379;DHT22;683;48.738;9.226;2022-11-15T02:15:59;7.20;99.90
1379;DHT22;683;48.738;9.226;2022-11-15T02:18:54;7.20;99.90
1379;DHT22;683;48.738;9.226;2022-11-15T02:21:44;7.20;99.90
1379;DHT22;683;48.738;9.226;2022-11-15T02:24:50;7.20;99.90
1379;DHT22;683;48.738;9.226;2022-11-15T02:31:11;7.10;99.90
1379;DHT22;683;48.738;9.226;2022-11-15T02:34:05;7.10;99.90
1379;DHT22;683;48.738;9.226;2022-11-15T02:37:00;7.10;99.90
1379;DHT22;683;48.738;9.226;2022-11-15T02:39:51;7.00;99.90
1379;DHT22;683;48.738;9.226;2022-11-15T02:42:43;7.00;99.90
1379;DHT22;683;48.738;9.226;2022-11-15T02:46:03;7.00;99.90
1379;DHT22;683;48.738;9.226;2022-11-15T02:48:52;7.00;99.90
1379;DHT22;683;48.738;9.226;2022-11-15T02:51:40;7.00;99.90
1379;DHT22;683;48.738;9.226;2022-11-15T02:54:30;7.00;99.90
1379;DHT22;683;48.738;9.226;2022-11-15T02:57:18;7.00;99.90
1379;DHT22;683;48.738;9.226;2022-11-15T03:00:11;7.10;99.90
1379;DHT22;683;48.738;9.226;2022-11-15T03:03:19;7.10;99.90
1379;DHT22;683;48.738;9.226;2022-11-15T03:06:19;7.20;99.90
1379;DHT22;683;48.738;9.226;2022-11-15T03:09:10;7.20;99.90
1379;DHT22;683;48.738;9.226;2022-11-15T03:12:03;7.20;99.90
1379;DHT22;683;48.738;9.226;2022-11-15T03:14:58;7.10;99.90
1379;DHT22;683;48.738;9.226;2022-11-15T03:17:49;7.10;99.90
1379;DHT22;683;48.738;9.226;2022-11-15T03:20:37;7.00;99.90
1379;DHT22;683;48.738;9.226;2022-11-15T03:23:26;6.90;99.90
1379;DHT22;683;48.738;9.226;2022-11-15T03:26:16;6.90;99.90
1379;DHT22;683;48.738;9.226;2022-11-15T03:29:08;6.90;99.90
1379;DHT22;683;48.738;9.226;2022-11-15T03:31:58;6.90;99.90
1379;DHT22;683;48.738;9.226;2022-11-15T03:34:49;6.90;99.90
1379;DHT22;683;48.738;9.226;2022-11-15T03:37:45;6.90;99.90
1379;DHT22;683;48.738;9.226;2022-11-15T03:40:38;6.90;99.90
1379;DHT22;683;48.738;9.226;2022-11-15T03:43:30;7.00;99.90
1379;DHT22;683;48.738;9.226;2022-11-15T03:46:24;7.00;99.90
1379;DHT22;683;48.738;9.226;2022-11-15T03:49:15;7.00;99.90
1379;DHT22;683;48.738;9.226;2022-11-15T03:52:04;7.00;99.90
1379;DHT22;683;48.738;9.226;2022-11-15T03:54:52;7.00;99.90
1379;DHT22;683;48.738;9.226;2022-11-15T03:57:40;7.10;99.90
1379;DHT22;683;48.738;9.226;2022-11-15T04:00:27;7.10;99.90
1379;DHT22;683;48.738;9.226;2022-11-15T04:03:13;7.10;99.90
1379;DHT22;683;48.738;9.226;2022-11-15T04:06:00;7.20;99.90
1379;DHT22;683;48.738;9.226;2022-11-15T04:08:46;7.10;99.90
1379;DHT22;683;48.738;9.226;2022-11-15T04:11:32;7.10;99.90
1379;DHT22;683;48.738;9.226;2022-11-15T04:14:20;7.10;99.90
1379;DHT22;683;48.738;9.226;2022-11-15T04:17:07;7.00;99.90
1379;DHT22;683;48.738;9.226;2022-11-15T04:19:53;7.00;99.90
1379;DHT22;683;48.738;9.226;2022-11-15T04:22:58;6.90;99.90
1379;DHT22;683;48.738;9.226;2022-11-15T04:26:04;6.90;99.90
1379;DHT22;683;48.738;9.226;2022-11-15T04:28:52;6.90;99.90
1379;DHT22;683;48.738;9.226;2022-11-15T04:31:57;6.90;99.90
1379;DHT22;683;48.738;9.226;2022-11-15T04:34:43;6.90;99.90
1379;DHT22;683;48.738;9.226;2022-11-15T04:37:30;6.90;99.90
1379;DHT22;683;48.738;9.226;2022-11-15T04:40:16;6.90;99.90
1379;DHT22;683;48.738;9.226;2022-11-15T04:43:03;6.90;99.90
1379;DHT22;683;48.738;9.226;2022-11-15T04:45:50;6.80;99.90
1379;DHT22;683;48.738;9.226;2022-11-15T04:48:37;6.70;99.90
1379;DHT22;683;48.738;9.226;2022-11-15T04:51:24;6.70;99.90
1379;DHT22;683;48.738;9.226;2022-11-15T04:54:10;6.70;99.90
1379;DHT22;683;48.738;9.226;2022-11-15T04:56:57;6.70;99.90
1379;DHT22;683;48.738;9.226;2022-11-15T04:59:43;6.60;99.90
1379;DHT22;683;48.738;9.226;2022-11-15T05:02:31;6.60;99.90
1379;DHT22;683;48.738;9.226;2022-11-15T05:05:32;6.60;99.90
1379;DHT22;683;48.738;9.226;2022-11-15T05:08:19;6.70;99.90
1379;DHT22;683;48.738;9.226;2022-11-15T05:11:05;6.60;99.90
1379;DHT22;683;48.738;9.226;2022-11-15T05:13:52;6.70;99.90
1379;DHT22;683;48.738;9.226;2022-11-15T05:16:38;6.70;99.90
1379;DHT22;683;48.738;9.226;2022-11-15T05:19:25;6.70;99.90
1379;DHT22;683;48.738;9.226;2022-11-15T05:22:13;6.80;99.90
1379;DHT22;683;48.738;9.226;2022-11-15T05:24:59;6.80;99.90
1379;DHT22;683;48.738;9.226;2022-11-15T05:27:45;6.80;99.90
1379;DHT22;683;48.738;9.226;2022-11-15T05:30:31;6.80;99.90
1379;DHT22;683;48.738;9.226;2022-11-15T05:33:18;6.80;99.90
1379;DHT22;683;48.738;9.226;2022-11-15T05:36:07;6.80;99.90
1379;DHT22;683;48.738;9.226;2022-11-15T05:38:57;6.80;99.90
1379;DHT22;683;48.738;9.226;2022-11-15T05:41:45;6.80;99.90
1379;DHT22;683;48.738;9.226;2022-11-15T05:44:33;6.70;99.90
1379;DHT22;683;48.738;9.226;2022-11-15T05:47:22;6.70;99.90
1379;DHT22;683;48.738;9.226;2022-11-15T05:50:12;6.70;99.90
1379;DHT22;683;48.738;9.226;2022-11-15T05:53:01;6.70;99.90
1379;DHT22;683;48.738;9.226;2022-11-15T05:55:49;6.70;99.90
1379;DHT22;683;48.738;9.226;2022-11-15T05:58:36;6.70;99.90
1379;DHT22;683;48.738;9.226;2022-11-15T06:01:22;6.70;99.90
1379;DHT22;683;48.738;9.226;2022-11-15T06:04:09;6.70;99.90
1379;DHT22;683;48.738;9.226;2022-11-15T06:06:55;6.70;99.90
1379;DHT22;683;48.738;9.226;2022-11-15T06:09:42;6.60;99.90
1379;DHT22;683;48.738;9.226;2022-11-15T06:12:30;6.60;99.90
1379;DHT22;683;48.738;9.226;2022-11-15T06:15:16;6.60;99.90
1379;DHT22;683;48.738;9.226;2022-11-15T06:18:02;6.60;99.90
1379;DHT22;683;48.738;9.226;2022-11-15T06:20:48;6.60;99.90
1379;DHT22;683;48.738;9.226;2022-11-15T06:23:35;6.60;99.90
1379;DHT22;683;48.738;9.226;2022-11-15T06:26:22;6.60;99.90
1379;DHT22;683;48.738;9.226;2022-11-15T06:29:10;6.60;99.90
1379;DHT22;683;48.738;9.226;2022-11-15T06:31:56;6.50;99.90
1379;DHT22;683;48.738;9.226;2022-11-15T06:34:42;6.50;99.90
1379;DHT22;683;48.738;9.226;2022-11-15T06:37:29;6.50;99.90
1379;DHT22;683;48.738;9.226;2022-11-15T06:40:15;6.50;99.90
1379;DHT22;683;48.738;9.226;2022-11-15T06:43:03;6.40;99.90
1379;DHT22;683;48.738;9.226;2022-11-15T06:45:51;6.50;99.90
1379;DHT22;683;48.738;9.226;2022-11-15T06:48:37;6.50;99.90
1379;DHT22;683;48.738;9.226;2022-11-15T06:51:23;6.50;99.90
1379;DHT22;683;48.738;9.226;2022-11-15T06:54:10;6.50;99.90
1379;DHT22;683;48.738;9.226;2022-11-15T06:56:56;6.50;99.90
1379;DHT22;683;48.738;9.226;2022-11-15T06:59:43;6.50;99.90
1379;DHT22;683;48.738;9.226;2022-11-15T07:02:31;6.60;99.90
1379;DHT22;683;48.738;9.226;2022-11-15T07:05:20;6.60;99.90
1379;DHT22;683;48.738;9.226;2022-11-15T07:08:06;6.70;99.90
1379;DHT22;683;48.738;9.226;2022-11-15T07:10:53;6.70;99.90
1379;DHT22;683;48.738;9.226;2022-11-15T07:13:40;6.80;99.90
1379;DHT22;683;48.738;9.226;2022-11-15T07:16:26;6.80;99.90
1379;DHT22;683;48.738;9.226;2022-11-15T07:19:14;6.90;99.90
1379;DHT22;683;48.738;9.226;2022-11-15T07:22:00;6.90;99.90
1379;DHT22;683;48.738;9.226;2022-11-15T07:24:46;7.00;99.90
1379;DHT22;683;48.738;9.226;2022-11-15T07:27:33;7.00;99.90
1379;DHT22;683;48.738;9.226;2022-11-15T07:30:19;7.10;99.90
1379;DHT22;683;48.738;9.226;2022-11-15T07:33:05;7.20;99.90
1379;DHT22;683;48.738;9.226;2022-11-15T07:35:53;7.30;99.90
1379;DHT22;683;48.738;9.226;2022-11-15T07:38:39;7.40;99.90
1379;DHT22;683;48.738;9.226;2022-11-15T07:41:26;7.50;99.90
1379;DHT22;683;48.738;9.226;2022-11-15T07:44:12;7.60;99.90
1379;DHT22;683;48.738;9.226;2022-11-15T07:46:59;7.80;99.90
1379;DHT22;683;48.738;9.226;2022-11-15T07:49:45;8.00;99.90
1379;DHT22;683;48.738;9.226;2022-11-15T07:52:33;8.20;99.90
1379;DHT22;683;48.738;9.226;2022-11-15T07:55:19;8.40;99.90
1379;DHT22;683;48.738;9.226;2022-11-15T07:58:07;8.50;99.90
1379;DHT22;683;48.738;9.226;2022-11-15T08:00:54;8.80;99.90
1379;DHT22;683;48.738;9.226;2022-11-15T08:03:40;9.00;99.90
1379;DHT22;683;48.738;9.226;2022-11-15T08:06:27;9.20;99.90
1379;DHT22;683;48.738;9.226;2022-11-15T08:09:14;9.40;99.90
1379;DHT22;683;48.738;9.226;2022-11-15T08:12:01;9.50;99.90
1379;DHT22;683;48.738;9.226;2022-11-15T08:14:47;9.60;99.90
1379;DHT22;683;48.738;9.226;2022-11-15T08:17:34;9.60;99.90
1379;DHT22;683;48.738;9.226;2022-11-15T08:20:20;9.70;99.90
1379;DHT22;683;48.738;9.226;2022-11-15T08:23:07;9.80;99.90
1379;DHT22;683;48.738;9.226;2022-11-15T08:26:01;9.80;99.90
1379;DHT22;683;48.738;9.226;2022-11-15T08:28:47;9.80;99.90
1379;DHT22;683;48.738;9.226;2022-11-15T08:31:35;9.70;99.90
1379;DHT22;683;48.738;9.226;2022-11-15T08:34:22;9.70;99.90
1379;DHT22;683;48.738;9.226;2022-11-15T08:37:08;9.70;99.90
1379;DHT22;683;48.738;9.226;2022-11-15T08:39:55;9.70;99.90
1379;DHT22;683;48.738;9.226;2022-11-15T08:42:42;9.80;99.90
1379;DHT22;683;48.738;9.226;2022-11-15T08:45:33;9.90;99.90
1379;DHT22;683;48.738;9.226;2022-11-15T08:48:19;9.90;99.90
1379;DHT22;683;48.738;9.226;2022-11-15T08:51:06;10.00;99.90
1379;DHT22;683;48.738;9.226;2022-11-15T08:53:52;10.10;99.90
1379;DHT22;683;48.738;9.226;2022-11-15T08:56:38;10.30;99.90
1379;DHT22;683;48.738;9.226;2022-11-15T08:59:26;10.40;99.90
1379;DHT22;683;48.738;9.226;2022-11-15T09:02:13;10.50;99.90
1379;DHT22;683;48.738;9.226;2022-11-15T09:04:59;10.60;99.90
1379;DHT22;683;48.738;9.226;2022-11-15T09:07:46;10.80;99.90
1379;DHT22;683;48.738;9.226;2022-11-15T09:10:32;10.90;99.90
1379;DHT22;683;48.738;9.226;2022-11-15T09:13:19;11.00;99.90
1379;DHT22;683;48.738;9.226;2022-11-15T09:16:07;11.20;99.90
1379;DHT22;683;48.738;9.226;2022-11-15T09:18:53;11.20;99.90
1379;DHT22;683;48.738;9.226;2022-11-15T09:21:40;11.30;99.90
1379;DHT22;683;48.738;9.226;2022-11-15T09:24:26;11.30;99.90
1379;DHT22;683;48.738;9.226;2022-11-15T09:27:12;11.40;99.90
1379;DHT22;683;48.738;9.226;2022-11-15T09:29:59;11.40;99.90
1379;DHT22;683;48.738;9.226;2022-11-15T09:32:47;11.50;99.90
1379;DHT22;683;48.738;9.226;2022-11-15T09:35:33;11.50;99.90
1379;DHT22;683;48.738;9.226;2022-11-15T09:38:20;11.60;99.90
1379;DHT22;683;48.738;9.226;2022-11-15T09:44:41;12.00;99.90
1379;DHT22;683;48.738;9.226;2022-11-15T09:51:12;12.10;99.90
1379;DHT22;683;48.738;9.226;2022-11-15T09:53:47;12.20;99.90
1379;DHT22;683;48.738;9.226;2022-11-15T09:56:19;12.30;99.90
1379;DHT22;683;48.738;9.226;2022-11-15T09:58:57;12.40;99.90
1379;DHT22;683;48.738;9.226;2022-11-15T10:01:36;12.50;99.90
1379;DHT22;683;48.738;9.226;2022-11-15T10:04:06;12.60;99.90
1379;DHT22;683;48.738;9.226;2022-11-15T10:06:40;12.70;99.90
1379;DHT22;683;48.738;9.226;2022-11-15T10:09:14;12.70;99.90
1379;DHT22;683;48.738;9.226;2022-11-15T10:11:43;12.80;99.90
1379;DHT22;683;48.738;9.226;2022-11-15T10:14:15;12.90;99.90
1379;DHT22;683;48.738;9.226;2022-11-15T10:19:54;13.10;99.90
1379;DHT22;683;48.738;9.226;2022-11-15T10:22:28;13.30;99.90
1379;DHT22;683;48.738;9.226;2022-11-15T10:25:12;13.30;99.90
1379;DHT22;683;48.738;9.226;2022-11-15T10:27:44;13.20;99.90
1379;DHT22;683;48.738;9.226;2022-11-15T10:30:16;13.30;99.90
1379;DHT22;683;48.738;9.226;2022-11-15T10:32:45;13.30;99.90
1379;DHT22;683;48.738;9.226;2022-11-15T10:35:23;13.50;99.90
1379;DHT22;683;48.738;9.226;2022-11-15T10:38:05;13.60;99.70
1379;DHT22;683;48.738;9.226;2022-11-15T10:40:34;13.70;99.50
1379;DHT22;683;48.738;9.226;2022-11-15T10:43:13;13.80;98.50
1379;DHT22;683;48.738;9.226;2022-11-15T10:45:41;13.80;98.40
1379;DHT22;683;48.738;9.226;2022-11-15T10:48:21;13.80;98.40
1379;DHT22;683;48.738;9.226;2022-11-15T10:50:50;13.80;98.90
1379;DHT22;683;48.738;9.226;2022-11-15T10:53:26;13.90;99.10
1379;DHT22;683;48.738;9.226;2022-11-15T10:55:57;13.80;98.90
1379;DHT22;683;48.738;9.226;2022-11-15T10:58:33;13.80;99.10
1379;DHT22;683;48.738;9.226;2022-11-15T11:01:20;13.80;99.10
1379;DHT22;683;48.738;9.226;2022-11-15T11:03:59;13.90;99.70
1379;DHT22;683;48.738;9.226;2022-11-15T11:06:27;13.90;99.70
1379;DHT22;683;48.738;9.226;2022-11-15T11:08:58;13.80;99.70
1379;DHT22;683;48.738;9.226;2022-11-15T11:11:44;13.80;99.90
1379;DHT22;683;48.738;9.226;2022-11-15T11:14:13;13.70;99.90
1379;DHT22;683;48.738;9.226;2022-11-15T11:16:48;13.70;99.90
1379;DHT22;683;48.738;9.226;2022-11-15T11:22:16;13.60;99.90
1379;DHT22;683;48.738;9.226;2022-11-15T11:24:53;13.60;99.90
1379;DHT22;683;48.738;9.226;2022-11-15T11:27:36;13.60;99.90
1379;DHT22;683;48.738;9.226;2022-11-15T11:30:11;13.60;99.90
1379;DHT22;683;48.738;9.226;2022-11-15T11:35:41;13.80;99.80
1379;DHT22;683;48.738;9.226;2022-11-15T11:38:21;13.90;99.80
1379;DHT22;683;48.738;9.226;2022-11-15T11:41:01;13.90;99.90
1379;DHT22;683;48.738;9.226;2022-11-15T11:43:38;14.00;99.90
1379;DHT22;683;48.738;9.226;2022-11-15T11:46:35;14.00;99.90
1379;DHT22;683;48.738;9.226;2022-11-15T11:49:10;14.20;99.90
1379;DHT22;683;48.738;9.226;2022-11-15T11:51:42;14.30;99.90
1379;DHT22;683;48.738;9.226;2022-11-15T11:54:14;14.40;99.90
1379;DHT22;683;48.738;9.226;2022-11-15T11:56:45;14.50;99.90
1379;DHT22;683;48.738;9.226;2022-11-15T11:59:19;14.50;99.90
1379;DHT22;683;48.738;9.226;2022-11-15T12:01:49;14.50;99.90
1379;DHT22;683;48.738;9.226;2022-11-15T12:04:19;14.50;99.90
1379;DHT22;683;48.738;9.226;2022-11-15T12:06:51;14.60;99.90
1379;DHT22;683;48.738;9.226;2022-11-15T12:09:28;14.60;99.90
1379;DHT22;683;48.738;9.226;2022-11-15T12:12:07;14.70;99.90
1379;DHT22;683;48.738;9.226;2022-11-15T12:14:42;14.80;99.90
1379;DHT22;683;48.738;9.226;2022-11-15T12:17:11;14.80;99.90
1379;DHT22;683;48.738;9.226;2022-11-15T12:19:39;14.80;99.90
1379;DHT22;683;48.738;9.226;2022-11-15T12:22:13;14.70;99.90
1379;DHT22;683;48.738;9.226;2022-11-15T12:24:48;14.70;99.90
1379;DHT22;683;48.738;9.226;2022-11-15T12:27:21;14.60;99.90
1379;DHT22;683;48.738;9.226;2022-11-15T12:29:55;14.50;99.90
1379;DHT22;683;48.738;9.226;2022-11-15T12:32:27;14.50;99.90
1379;DHT22;683;48.738;9.226;2022-11-15T12:34:56;14.40;99.90
1379;DHT22;683;48.738;9.226;2022-11-15T12:37:54;14.30;99.90
1379;DHT22;683;48.738;9.226;2022-11-15T12:40:36;14.40;99.90
1379;DHT22;683;48.738;9.226;2022-11-15T12:46:05;14.20;99.90
1379;DHT22;683;48.738;9.226;2022-11-15T12:48:58;14.10;99.90
1379;DHT22;683;48.738;9.226;2022-11-15T12:54:58;14.10;99.90
1379;DHT22;683;48.738;9.226;2022-11-15T12:57:41;14.20;99.90
1379;DHT22;683;48.738;9.226;2022-11-15T13:00:45;14.00;99.90
1379;DHT22;683;48.738;9.226;2022-11-15T13:03:27;13.90;99.90
1379;DHT22;683;48.738;9.226;2022-11-15T13:05:59;13.90;99.90
1379;DHT22;683;48.738;9.226;2022-11-15T13:08:49;13.80;99.90
1379;DHT22;683;48.738;9.226;2022-11-15T13:11:46;13.80;99.90
1379;DHT22;683;48.738;9.226;2022-11-15T13:14:45;13.80;99.90
1379;DHT22;683;48.738;9.226;2022-11-15T13:17:29;13.70;99.90
1379;DHT22;683;48.738;9.226;2022-11-15T13:20:00;13.70;99.90
1379;DHT22;683;48.738;9.226;2022-11-15T13:22:39;13.60;99.90
1379;DHT22;683;48.738;9.226;2022-11-15T13:28:21;13.60;99.90
1379;DHT22;683;48.738;9.226;2022-11-15T13:30:51;13.60;99.90
1379;DHT22;683;48.738;9.226;2022-11-15T13:33:23;13.60;99.90
1379;DHT22;683;48.738;9.226;2022-11-15T13:35:53;13.50;99.90
1379;DHT22;683;48.738;9.226;2022-11-15T13:38:27;13.50;99.90
1379;DHT22;683;48.738;9.226;2022-11-15T13:40:56;13.50;99.90
1379;DHT22;683;48.738;9.226;2022-11-15T13:43:31;13.40;99.90
1379;DHT22;683;48.738;9.226;2022-11-15T13:46:13;13.40;99.90
1379;DHT22;683;48.738;9.226;2022-11-15T13:48:43;13.40;99.90
1379;DHT22;683;48.738;9.226;2022-11-15T13:51:17;13.30;99.90
1379;DHT22;683;48.738;9.226;2022-11-15T13:53:49;13.20;99.90
1379;DHT22;683;48.738;9.226;2022-11-15T13:56:18;13.30;99.90
1379;DHT22;683;48.738;9.226;2022-11-15T13:58:47;13.20;99.90
1379;DHT22;683;48.738;9.226;2022-11-15T14:01:17;13.20;99.90
1379;DHT22;683;48.738;9.226;2022-11-15T14:03:51;13.10;99.90
1379;DHT22;683;48.738;9.226;2022-11-15T14:06:21;12.90;99.90
1379;DHT22;683;48.738;9.226;2022-11-15T14:09:29;13.00;99.90
1379;DHT22;683;48.738;9.226;2022-11-15T14:11:59;12.90;99.90
1379;DHT22;683;48.738;9.226;2022-11-15T14:14:28;12.80;99.90
1379;DHT22;683;48.738;9.226;2022-11-15T14:16:57;12.70;99.90
1379;DHT22;683;48.738;9.226;2022-11-15T14:19:40;12.60;99.90
1379;DHT22;683;48.738;9.226;2022-11-15T14:22:16;12.60;99.90
1379;DHT22;683;48.738;9.226;2022-11-15T14:24:45;12.60;99.90
1379;DHT22;683;48.738;9.226;2022-11-15T14:27:21;12.50;99.90
1379;DHT22;683;48.738;9.226;2022-11-15T14:29:49;12.50;99.90
1379;DHT22;683;48.738;9.226;2022-11-15T14:32:19;12.50;99.90
1379;DHT22;683;48.738;9.226;2022-11-15T14:34:53;12.50;99.90
1379;DHT22;683;48.738;9.226;2022-11-15T14:37:24;12.50;99.90
1379;DHT22;683;48.738;9.226;2022-11-15T14:39:53;12.50;99.90
1379;DHT22;683;48.738;9.226;2022-11-15T14:42:21;12.50;99.90
1379;DHT22;683;48.738;9.226;2022-11-15T14:44:50;12.40;99.90
1379;DHT22;683;48.738;9.226;2022-11-15T14:47:18;12.40;99.90
1379;DHT22;683;48.738;9.226;2022-11-15T14:49:46;12.40;99.90
1379;DHT22;683;48.738;9.226;2022-11-15T14:52:25;12.40;99.90
1379;DHT22;683;48.738;9.226;2022-11-15T14:54:54;12.40;99.90
1379;DHT22;683;48.738;9.226;2022-11-15T14:57:22;12.30;99.90
1379;DHT22;683;48.738;9.226;2022-11-15T14:59:50;12.30;99.90
1379;DHT22;683;48.738;9.226;2022-11-15T15:02:20;12.30;99.90
1379;DHT22;683;48.738;9.226;2022-11-15T15:07:39;12.20;99.90
1379;DHT22;683;48.738;9.226;2022-11-15T15:10:08;12.20;99.90
1379;DHT22;683;48.738;9.226;2022-11-15T15:12:36;12.20;99.90
1379;DHT22;683;48.738;9.226;2022-11-15T15:15:08;12.10;99.90
1379;DHT22;683;48.738;9.226;2022-11-15T15:17:39;12.00;99.90
1379;DHT22;683;48.738;9.226;2022-11-15T15:20:08;12.00;99.90
1379;DHT22;683;48.738;9.226;2022-11-15T15:22:36;11.90;99.90
1379;DHT22;683;48.738;9.226;2022-11-15T15:25:20;11.90;99.90
1379;DHT22;683;48.738;9.226;2022-11-15T15:27:49;11.90;99.90
1379;DHT22;683;48.738;9.226;2022-11-15T15:30:17;11.80;99.90
1379;DHT22;683;48.738;9.226;2022-11-15T15:32:45;11.80;99.90
1379;DHT22;683;48.738;9.226;2022-11-15T15:35:14;11.70;99.90
1379;DHT22;683;48.738;9.226;2022-11-15T15:37:43;11.80;99.90
1379;DHT22;683;48.738;9.226;2022-11-15T15:40:16;11.80;99.90
1379;DHT22;683;48.738;9.226;2022-11-15T15:42:44;11.70;99.90
1379;DHT22;683;48.738;9.226;2022-11-15T15:45:12;11.70;99.90
1379;DHT22;683;48.738;9.226;2022-11-15T15:47:41;11.60;99.90
1379;DHT22;683;48.738;9.226;2022-11-15T15:50:19;11.50;99.90
1379;DHT22;683;48.738;9.226;2022-11-15T15:52:48;11.50;99.90
1379;DHT22;683;48.738;9.226;2022-11-15T15:55:18;11.40;99.90
1379;DHT22;683;48.738;9.226;2022-11-15T15:57:46;11.40;99.90
1379;DHT22;683;48.738;9.226;2022-11-15T16:00:15;11.40;99.90
1379;DHT22;683;48.738;9.226;2022-11-15T16:02:44;11.40;99.90
1379;DHT22;683;48.738;9.226;2022-11-15T16:05:12;11.30;99.90
1379;DHT22;683;48.738;9.226;2022-11-15T16:07:40;11.30;99.90
1379;DHT22;683;48.738;9.226;2022-11-15T16:10:21;11.30;99.90
1379;DHT22;683;48.738;9.226;2022-11-15T16:12:51;11.30;99.90
1379;DHT22;683;48.738;9.226;2022-11-15T16:15:19;11.30;99.90
1379;DHT22;683;48.738;9.226;2022-11-15T16:17:50;11.20;99.90
1379;DHT22;683;48.738;9.226;2022-11-15T16:20:39;11.20;99.90
1379;DHT22;683;48.738;9.226;2022-11-15T16:23:10;11.20;99.90
1379;DHT22;683;48.738;9.226;2022-11-15T16:25:42;11.20;99.90
1379;DHT22;683;48.738;9.226;2022-11-15T16:28:20;11.20;99.90
1379;DHT22;683;48.738;9.226;2022-11-15T16:30:49;11.20;99.90
1379;DHT22;683;48.738;9.226;2022-11-15T16:33:26;11.20;99.90
1379;DHT22;683;48.738;9.226;2022-11-15T16:35:54;11.20;99.90
1379;DHT22;683;48.738;9.226;2022-11-15T16:38:22;11.20;99.90
1379;DHT22;683;48.738;9.226;2022-11-15T16:40:52;11.20;99.90
1379;DHT22;683;48.738;9.226;2022-11-15T16:43:20;11.20;99.90
1379;DHT22;683;48.738;9.226;2022-11-15T16:45:49;11.20;99.90
1379;DHT22;683;48.738;9.226;2022-11-15T16:48:21;11.20;99.90
1379;DHT22;683;48.738;9.226;2022-11-15T16:50:52;11.20;99.90
1379;DHT22;683;48.738;9.226;2022-11-15T16:53:22;11.30;99.90
1379;DHT22;683;48.738;9.226;2022-11-15T16:55:52;11.30;99.90
1379;DHT22;683;48.738;9.226;2022-11-15T16:58:20;11.30;99.90
1379;DHT22;683;48.738;9.226;2022-11-15T17:00:50;11.30;99.90
1379;DHT22;683;48.738;9.226;2022-11-15T17:03:18;11.30;99.90
1379;DHT22;683;48.738;9.226;2022-11-15T17:05:47;11.30;99.90
1379;DHT22;683;48.738;9.226;2022-11-15T17:08:15;11.30;99.90
1379;DHT22;683;48.738;9.226;2022-11-15T17:10:46;11.30;99.90
1379;DHT22;683;48.738;9.226;2022-11-15T17:13:16;11.30;99.90
1379;DHT22;683;48.738;9.226;2022-11-15T17:15:44;11.20;99.90
1379;DHT22;683;48.738;9.226;2022-11-15T17:18:13;11.20;99.90
1379;DHT22;683;48.738;9.226;2022-11-15T17:20:41;11.20;99.90
1379;DHT22;683;48.738;9.226;2022-11-15T17:23:12;11.30;99.90
1379;DHT22;683;48.738;9.226;2022-11-15T17:25:41;11.20;99.90
1379;DHT22;683;48.738;9.226;2022-11-15T17:28:09;11.20;99.90
1379;DHT22;683;48.738;9.226;2022-11-15T17:30:42;11.20;99.90
1379;DHT22;683;48.738;9.226;2022-11-15T17:33:10;11.20;99.90
1379;DHT22;683;48.738;9.226;2022-11-15T17:35:38;11.20;99.90
1379;DHT22;683;48.738;9.226;2022-11-15T17:38:06;11.20;99.90
1379;DHT22;683;48.738;9.226;2022-11-15T17:40:34;11.20;99.90
1379;DHT22;683;48.738;9.226;2022-11-15T17:43:04;11.20;99.90
1379;DHT22;683;48.738;9.226;2022-11-15T17:45:32;11.20;99.90
1379;DHT22;683;48.738;9.226;2022-11-15T17:48:02;11.20;99.90
1379;DHT22;683;48.738;9.226;2022-11-15T17:50:30;11.20;99.90
1379;DHT22;683;48.738;9.226;2022-11-15T17:52:59;11.10;99.90
1379;DHT22;683;48.738;9.226;2022-11-15T17:55:26;11.10;99.90
1379;DHT22;683;48.738;9.226;2022-11-15T17:57:55;11.10;99.90
1379;DHT22;683;48.738;9.226;2022-11-15T18:00:23;11.10;99.90
1379;DHT22;683;48.738;9.226;2022-11-15T18:02:51;11.10;99.90
1379;DHT22;683;48.738;9.226;2022-11-15T18:05:20;11.10;99.90
1379;DHT22;683;48.738;9.226;2022-11-15T18:07:49;11.10;99.90
1379;DHT22;683;48.738;9.226;2022-11-15T18:10:17;11.00;99.90
1379;DHT22;683;48.738;9.226;2022-11-15T18:12:45;11.00;99.90
1379;DHT22;683;48.738;9.226;2022-11-15T18:15:14;11.00;99.90
1379;DHT22;683;48.738;9.226;2022-11-15T18:17:42;11.00;99.90
1379;DHT22;683;48.738;9.226;2022-11-15T18:20:11;11.00;99.90
1379;DHT22;683;48.738;9.226;2022-11-15T18:22:40;11.00;99.90
1379;DHT22;683;48.738;9.226;2022-11-15T18:25:10;11.00;99.90
1379;DHT22;683;48.738;9.226;2022-11-15T18:27:41;11.10;99.90